Time;durP1;ratioP1;P1;durP2;ratioP2;P2;SDS_P1;SDS_P2;PMS_P1;PMS_P2;Temp;Humidity;BMP_temperature;BMP_pressure;BME280_temperature;BME280_humidity;BME280_pressure;Samples;Min_cycle;Max_cycle;Signal;HPM_P1;HPM_P2
2022/01/05 00:02:08;;;;;;;18.10;4.57;;;;;;;4.07;100.00;99342.66;4930514;29;20060;-92
2022/01/05 00:04:35;;;;;;;19.50;4.10;;;;;;;3.95;100.00;99316.28;4933047;29;20091;-93
2022/01/05 00:07:03;;;;;;;23.05;4.45;;;;;;;4.29;100.00;99332.44;4937001;29;20413;-93
2022/01/05 00:09:30;;;;;;;16.88;3.63;;;;;;;3.93;100.00;99324.97;4913430;29;20063;-92
2022/01/05 00:11:57;;;;;;;26.23;3.60;;;;;;;4.13;100.00;99319.16;4919211;29;20538;-92
2022/01/05 00:14:24;;;;;;;16.67;4.50;;;;;;;3.90;100.00;99322.50;4903657;29;20058;-92
2022/01/05 00:16:51;;;;;;;21.73;4.05;;;;;;;4.19;100.00;99324.13;4902959;29;20059;-92
2022/01/05 00:19:18;;;;;;;21.90;3.72;;;;;;;4.02;100.00;99339.38;4904910;29;20055;-93
2022/01/05 00:21:45;;;;;;;25.63;4.20;;;;;;;4.03;100.00;99317.78;4902823;29;20063;-93
2022/01/05 00:24:12;;;;;;;24.08;4.57;;;;;;;4.17;100.00;99350.06;4934645;29;20070;-92
2022/01/05 00:26:39;;;;;;;24.67;4.47;;;;;;;4.19;100.00;99335.31;4921390;29;20425;-93
2022/01/05 00:29:06;;;;;;;20.65;3.78;;;;;;;4.50;100.00;99374.91;4917347;29;20047;-93
2022/01/05 00:31:32;;;;;;;16.90;3.30;;;;;;;4.05;100.00;99349.63;4918136;29;20058;-93
2022/01/05 00:34:04;;;;;;;24.95;4.80;;;;;;;4.28;100.00;99344.53;4918155;29;20060;-93
2022/01/05 00:36:31;;;;;;;21.17;4.63;;;;;;;4.27;100.00;99340.25;4917692;29;20055;-94
2022/01/05 00:38:57;;;;;;;18.00;4.85;;;;;;;4.03;100.00;99354.03;4927238;29;20052;-92
2022/01/05 00:41:24;;;;;;;14.63;4.43;;;;;;;4.04;100.00;99355.69;4921487;29;20074;-93
2022/01/05 00:43:51;;;;;;;17.98;4.50;;;;;;;4.12;100.00;99372.69;4936792;29;20066;-95
2022/01/05 00:46:18;;;;;;;29.38;4.40;;;;;;;4.01;100.00;99350.66;4936952;29;20398;-95
2022/01/05 00:48:44;;;;;;;15.57;3.58;;;;;;;4.25;100.00;99403.38;4936916;29;20409;-95
2022/01/05 00:51:12;;;;;;;25.60;5.13;;;;;;;4.39;100.00;99406.34;4920888;29;20062;-96
2022/01/05 00:53:39;;;;;;;21.75;5.40;;;;;;;4.05;100.00;99373.78;4936311;29;20483;-92
2022/01/05 00:56:06;;;;;;;20.33;3.55;;;;;;;3.88;100.00;99358.81;4935533;29;20055;-94
2022/01/05 00:58:33;;;;;;;18.52;3.58;;;;;;;4.62;100.00;99408.19;4920488;29;20052;-93
2022/01/05 01:01:00;;;;;;;20.10;5.10;;;;;;;4.46;100.00;99397.50;4920210;29;20059;-94
2022/01/05 01:03:28;;;;;;;27.48;4.28;;;;;;;4.25;100.00;99382.66;4920091;29;20079;-96
2022/01/05 01:05:56;;;;;;;26.70;4.20;;;;;;;4.19;100.00;99386.28;4921204;29;20050;-95
2022/01/05 01:08:23;;;;;;;19.45;4.85;;;;;;;4.10;100.00;99408.16;4921518;29;20051;-94
2022/01/05 01:10:50;;;;;;;28.35;4.78;;;;;;;4.01;100.00;99372.22;4921642;29;20489;-94
2022/01/05 01:13:17;;;;;;;20.88;3.97;;;;;;;4.23;100.00;99450.06;4920926;29;20055;-92
2022/01/05 01:15:49;;;;;;;22.50;3.70;;;;;;;4.19;100.00;99425.16;4918406;29;20511;-91
2022/01/05 01:18:17;;;;;;;16.27;4.45;;;;;;;4.18;100.00;99446.78;4916743;29;20388;-93
2022/01/05 01:20:45;;;;;;;20.05;3.70;;;;;;;4.15;100.00;99416.63;4934126;29;20068;-91
2022/01/05 01:23:12;;;;;;;16.23;4.15;;;;;;;3.96;100.00;99416.38;4934080;29;20058;-89
2022/01/05 01:25:39;;;;;;;15.05;3.40;;;;;;;3.88;100.00;99422.69;4919192;29;20410;-93
2022/01/05 01:28:06;;;;;;;17.23;4.72;;;;;;;3.63;100.00;99379.47;4933479;29;20047;-92
2022/01/05 01:30:34;;;;;;;36.58;5.15;;;;;;;4.19;100.00;99448.47;4934527;29;20051;-92
2022/01/05 01:33:01;;;;;;;16.65;3.00;;;;;;;3.88;100.00;99425.28;4934798;29;20059;-92
2022/01/05 01:35:28;;;;;;;18.02;3.92;;;;;;;4.23;100.00;99477.72;4941664;29;20047;-91
2022/01/05 01:37:55;;;;;;;15.02;2.70;;;;;;;4.17;100.00;99479.59;4918098;29;20445;-92
2022/01/05 01:40:23;;;;;;;19.70;3.28;;;;;;;4.02;100.00;99448.16;4916384;29;20418;-92
2022/01/05 01:42:49;;;;;;;19.30;2.92;;;;;;;3.83;100.00;99434.94;4915374;29;20052;-90
2022/01/05 01:45:16;;;;;;;19.27;3.67;;;;;;;3.38;100.00;99416.41;4916755;29;20048;-91
2022/01/05 01:47:45;;;;;;;13.98;4.38;;;;;;;3.62;100.00;99426.94;4915817;29;20059;-92
2022/01/05 01:50:12;;;;;;;21.60;4.70;;;;;;;3.70;100.00;99426.69;4912811;29;20164;-91
2022/01/05 01:52:39;;;;;;;15.65;3.97;;;;;;;3.97;100.00;99484.56;4933757;29;20795;-92
2022/01/05 01:55:08;;;;;;;17.80;4.40;;;;;;;4.06;100.00;99468.75;4935224;29;20062;-92
2022/01/05 01:57:38;;;;;;;26.45;4.60;;;;;;;4.08;100.00;99473.88;4918320;29;20102;-91
2022/01/05 02:00:06;;;;;;;18.75;3.78;;;;;;;3.85;100.00;99483.19;4915737;29;20130;-90
2022/01/05 02:02:33;;;;;;;20.63;3.88;;;;;;;4.12;100.00;99455.59;4899492;29;20056;-92
2022/01/05 02:05:01;;;;;;;27.75;6.15;;;;;;;4.01;100.00;99470.63;4915126;29;20072;-91
2022/01/05 02:07:28;;;;;;;24.92;4.30;;;;;;;3.90;100.00;99470.97;4935022;29;20059;-91
2022/01/05 02:09:54;;;;;;;27.50;4.15;;;;;;;3.97;100.00;99446.56;4933339;29;20048;-91
2022/01/05 02:12:26;;;;;;;18.27;4.53;;;;;;;3.89;100.00;99409.69;4933928;29;20060;-92
2022/01/05 02:14:54;;;;;;;15.18;3.67;;;;;;;4.24;100.00;99464.72;4918235;29;20486;-91
2022/01/05 02:17:28;;;;;;;20.20;4.32;;;;;;;4.16;100.00;99458.94;4918408;29;20071;-92
2022/01/05 02:19:56;;;;;;;19.73;4.85;;;;;;;4.24;100.00;99485.44;4944384;29;20051;-93
2022/01/05 02:22:23;;;;;;;18.58;4.07;;;;;;;4.23;100.00;99495.84;4952212;29;20062;-93
2022/01/05 02:24:49;;;;;;;26.60;3.90;;;;;;;4.30;100.00;99479.22;4937917;29;20053;-93
2022/01/05 02:27:17;;;;;;;20.63;4.75;;;;;;;4.37;100.00;99504.03;4939068;29;20051;-94
2022/01/05 02:29:45;;;;;;;18.15;3.80;;;;;;;4.33;100.00;99512.81;4920436;29;20058;-91
2022/01/05 02:32:12;;;;;;;17.85;4.15;;;;;;;4.43;100.00;99506.47;4915552;29;20059;-93
2022/01/05 02:34:39;;;;;;;13.98;3.25;;;;;;;4.26;100.00;99494.03;4937331;29;20094;-92
2022/01/05 02:37:06;;;;;;;24.45;5.07;;;;;;;4.34;100.00;99483.44;4938630;29;20057;-92
2022/01/05 02:39:32;;;;;;;17.88;4.30;;;;;;;3.79;100.00;99439.38;4936149;29;20057;-91
2022/01/05 02:41:59;;;;;;;22.25;4.07;;;;;;;4.21;100.00;99511.44;4920971;29;20063;-92
2022/01/05 02:44:26;;;;;;;25.27;4.95;;;;;;;4.65;100.00;99529.91;4937017;29;20048;-93
2022/01/05 02:46:53;;;;;;;17.63;3.75;;;;;;;4.43;100.00;99521.16;4921324;29;20039;-92
2022/01/05 02:49:20;;;;;;;16.73;4.90;;;;;;;4.32;100.00;99530.13;4926548;29;20484;-90
2022/01/05 02:51:47;;;;;;;20.40;3.97;;;;;;;4.54;100.00;99551.00;4957565;29;20055;-92
2022/01/05 02:54:13;;;;;;;15.35;3.88;;;;;;;4.54;100.00;99530.28;4957149;29;20051;-92
2022/01/05 02:56:40;;;;;;;17.00;3.70;;;;;;;4.36;100.00;99531.72;4945896;29;20055;-91
2022/01/05 02:59:07;;;;;;;25.27;5.80;;;;;;;4.31;100.00;99527.56;4934500;29;20048;-90
2022/01/05 03:01:34;;;;;;;12.88;3.15;;;;;;;4.49;100.00;99544.28;4937383;29;20055;-90
2022/01/05 03:04:01;;;;;;;25.85;4.32;;;;;;;4.35;100.00;99531.75;4937688;29;20552;-90
2022/01/05 03:06:28;;;;;;;14.23;3.70;;;;;;;4.16;100.00;99515.91;4936943;29;20051;-91
2022/01/05 03:08:55;;;;;;;19.27;4.63;;;;;;;4.14;100.00;99523.75;4920689;29;20382;-91
2022/01/05 03:11:21;;;;;;;18.48;3.05;;;;;;;3.89;100.00;99541.75;4936862;29;20059;-89
2022/01/05 03:13:50;;;;;;;20.27;3.97;;;;;;;4.08;100.00;99534.31;4937479;29;20060;-90
2022/01/05 03:16:16;;;;;;;15.20;3.17;;;;;;;3.99;100.00;99540.59;4937870;29;20058;-90
2022/01/05 03:18:43;;;;;;;13.63;3.67;;;;;;;3.91;100.00;99546.91;4920640;29;20048;-90
2022/01/05 03:21:10;;;;;;;26.08;3.70;;;;;;;3.93;100.00;99512.31;4956950;29;20545;-89
2022/01/05 03:23:37;;;;;;;13.20;2.45;;;;;;;3.93;100.00;99499.34;4956677;28;20504;-90
2022/01/05 03:26:04;;;;;;;18.27;3.33;;;;;;;4.11;100.00;99546.31;4935466;29;20052;-88
2022/01/05 03:28:30;;;;;;;20.73;4.25;;;;;;;3.75;100.00;99485.22;4937328;29;20051;-90
2022/01/05 03:30:57;;;;;;;11.80;2.88;;;;;;;4.04;100.00;99504.22;4921063;29;20702;-89
2022/01/05 03:33:24;;;;;;;17.15;4.43;;;;;;;4.34;100.00;99522.31;4937490;29;20052;-88
2022/01/05 03:35:51;;;;;;;16.00;3.60;;;;;;;4.11;100.00;99538.56;4920956;29;20048;-89
2022/01/05 03:38:19;;;;;;;17.23;3.33;;;;;;;4.40;100.00;99558.38;4919769;29;20052;-89
2022/01/05 03:40:47;;;;;;;12.30;2.75;;;;;;;4.01;100.00;99555.25;4936226;29;20493;-88
2022/01/05 03:43:15;;;;;;;18.73;4.78;;;;;;;4.03;100.00;99564.66;4935079;29;20055;-89
2022/01/05 03:45:42;;;;;;;12.77;2.50;;;;;;;3.96;100.00;99548.44;4936222;29;20059;-90
2022/01/05 03:48:12;;;;;;;19.52;3.67;;;;;;;4.16;100.00;99563.44;4935783;29;20126;-91
2022/01/05 03:50:39;;;;;;;8.95;2.95;;;;;;;4.27;100.00;99580.41;4917156;29;20056;-91
2022/01/05 03:53:07;;;;;;;15.00;2.78;;;;;;;4.03;100.00;99575.03;4916680;29;20062;-90
2022/01/05 03:55:36;;;;;;;15.50;2.25;;;;;;;4.17;100.00;99597.94;4918362;29;20059;-91
2022/01/05 03:58:03;;;;;;;12.80;2.80;;;;;;;4.01;100.00;99615.69;4919978;29;20053;-93
2022/01/05 04:00:31;;;;;;;8.30;2.03;;;;;;;3.91;100.00;99611.63;4935620;29;20482;-92
2022/01/05 04:02:59;;;;;;;14.40;3.58;;;;;;;3.98;100.00;99623.53;4920770;29;20130;-91
2022/01/05 04:05:26;;;;;;;15.23;2.58;;;;;;;3.84;100.00;99648.97;4920323;29;20044;-91
2022/01/05 04:07:53;;;;;;;9.52;2.03;;;;;;;3.58;100.00;99656.53;4935262;29;20136;-90
2022/01/05 04:10:19;;;;;;;10.73;2.70;;;;;;;4.13;100.00;99676.66;4900731;29;20056;-90
2022/01/05 04:12:49;;;;;;;21.42;3.10;;;;;;;3.98;100.00;99675.31;4901578;29;20055;-91
2022/01/05 04:15:19;;;;;;;10.70;3.60;;;;;;;4.10;100.00;99700.88;4906884;29;20044;-91
2022/01/05 04:17:46;;;;;;;14.70;2.80;;;;;;;4.36;100.00;99691.56;4926996;29;20052;-91
2022/01/05 04:20:14;;;;;;;12.55;3.30;;;;;;;4.15;100.00;99704.22;4936137;29;20066;-90
2022/01/05 04:22:41;;;;;;;13.95;3.10;;;;;;;4.03;100.00;99701.94;4919189;29;20044;-91
2022/01/05 04:25:09;;;;;;;16.65;4.47;;;;;;;4.19;100.00;99700.63;4935186;29;20074;-91
2022/01/05 04:27:36;;;;;;;13.35;2.75;;;;;;;4.36;100.00;99704.50;4930073;29;20055;-90
2022/01/05 04:30:08;;;;;;;16.13;3.20;;;;;;;4.01;100.00;99728.81;4911027;29;20056;-89
2022/01/05 04:32:36;;;;;;;11.25;2.55;;;;;;;3.94;100.00;99713.41;4932264;29;20496;-89
2022/01/05 04:35:22;;;;;;;12.82;2.78;;;;;;;3.99;100.00;99740.03;4931754;29;20058;-90
2022/01/05 04:37:52;;;;;;;11.93;2.50;;;;;;;4.26;100.00;99745.38;4926957;29;20079;-90
2022/01/05 04:40:19;;;;;;;7.22;2.22;;;;;;;3.66;100.00;99752.09;4926386;29;20056;-89
2022/01/05 04:42:46;;;;;;;9.10;2.00;;;;;;;3.91;100.00;99761.84;4923860;29;20052;-90
2022/01/05 04:45:13;;;;;;;12.15;2.00;;;;;;;3.82;100.00;99757.75;4925481;29;20083;-90
2022/01/05 04:47:40;;;;;;;11.52;2.13;;;;;;;3.95;100.00;99768.66;4910608;29;20044;-90
2022/01/05 04:50:07;;;;;;;12.85;2.38;;;;;;;3.82;100.00;99782.81;4921397;29;20070;-90
2022/01/05 04:52:35;;;;;;;12.05;2.55;;;;;;;3.87;100.00;99792.16;4907531;29;20134;-90
2022/01/05 04:55:02;;;;;;;10.85;2.00;;;;;;;3.98;100.00;99787.56;4911909;29;20048;-89
2022/01/05 04:57:29;;;;;;;11.60;2.15;;;;;;;3.99;100.00;99793.59;4932461;29;20047;-89
2022/01/05 04:59:56;;;;;;;9.68;1.80;;;;;;;3.90;100.00;99804.19;4913889;29;20579;-89
2022/01/05 05:02:23;;;;;;;7.60;1.70;;;;;;;4.14;100.00;99821.69;4934230;29;20058;-89
2022/01/05 05:04:50;;;;;;;6.97;2.45;;;;;;;4.04;100.00;99827.13;4935602;29;20051;-90
2022/01/05 05:07:18;;;;;;;9.32;1.83;;;;;;;3.97;100.00;99837.66;4934637;29;20048;-90
2022/01/05 05:09:44;;;;;;;5.68;1.73;;;;;;;4.01;100.00;99825.47;4903018;29;20079;-89
2022/01/05 05:12:11;;;;;;;8.60;2.38;;;;;;;3.90;100.00;99837.84;4899955;29;20139;-90
2022/01/05 05:14:38;;;;;;;7.40;1.83;;;;;;;4.06;100.00;99857.31;4913757;29;20056;-90
2022/01/05 05:17:05;;;;;;;8.93;1.45;;;;;;;3.68;100.00;99855.63;4935344;29;20052;-90
2022/01/05 05:19:32;;;;;;;6.88;1.90;;;;;;;3.64;100.00;99854.00;4919049;29;20608;-89
2022/01/05 05:21:59;;;;;;;9.73;1.90;;;;;;;4.00;100.00;99870.41;4934276;29;20048;-90
2022/01/05 05:24:26;;;;;;;8.30;1.85;;;;;;;4.19;100.00;99879.41;4918471;29;20083;-90
2022/01/05 05:26:52;;;;;;;5.72;1.80;;;;;;;3.86;100.00;99865.56;4935472;29;20044;-90
2022/01/05 05:29:19;;;;;;;8.20;1.67;;;;;;;3.79;100.00;99889.91;4915781;29;20066;-89
2022/01/05 05:31:46;;;;;;;9.73;1.83;;;;;;;4.01;100.00;99886.81;4933804;29;20051;-89
2022/01/05 05:34:13;;;;;;;9.90;2.08;;;;;;;4.23;100.00;99913.88;4934396;29;20090;-89
2022/01/05 05:36:39;;;;;;;6.85;1.88;;;;;;;4.49;100.00;99902.00;4918366;29;20048;-89
2022/01/05 05:39:06;;;;;;;13.57;3.40;;;;;;;4.30;100.00;99896.44;4933267;29;20044;-89
2022/01/05 05:41:33;;;;;;;12.13;2.10;;;;;;;4.28;100.00;99937.09;4934959;29;20672;-89
2022/01/05 05:44:00;;;;;;;10.85;2.58;;;;;;;4.11;100.00;99911.59;4918554;29;20433;-88
2022/01/05 05:46:26;;;;;;;11.70;3.70;;;;;;;3.98;100.00;99947.28;4933699;29;20055;-89
2022/01/05 05:48:53;;;;;;;11.65;2.63;;;;;;;3.79;100.00;99949.47;4932677;29;20110;-88
2022/01/05 05:51:20;;;;;;;17.85;4.10;;;;;;;3.97;100.00;99938.69;4933863;29;20094;-89
2022/01/05 05:53:47;;;;;;;12.48;2.33;;;;;;;4.26;100.00;99965.63;4933447;29;20069;-89
2022/01/05 05:56:13;;;;;;;10.45;3.28;;;;;;;4.07;100.00;99923.78;4934641;29;20048;-89
2022/01/05 05:58:40;;;;;;;11.27;2.63;;;;;;;4.17;100.00;99952.91;4910483;29;20048;-89
2022/01/05 06:01:07;;;;;;;11.02;2.70;;;;;;;4.38;100.00;99929.03;4911535;29;20723;-88
2022/01/05 06:03:34;;;;;;;17.77;2.75;;;;;;;4.32;100.00;99930.94;4933389;29;20059;-88
2022/01/05 06:06:01;;;;;;;6.93;2.15;;;;;;;3.99;100.00;99933.47;4934532;29;20048;-88
2022/01/05 06:08:28;;;;;;;13.05;2.38;;;;;;;3.92;100.00;99939.69;4934282;29;20043;-88
2022/01/05 06:10:54;;;;;;;10.70;2.60;;;;;;;4.13;100.00;99935.75;4936841;29;20055;-89
2022/01/05 06:13:21;;;;;;;10.50;2.30;;;;;;;4.02;100.00;99961.03;4937081;29;20407;-89
2022/01/05 06:15:48;;;;;;;11.63;2.25;;;;;;;3.98;100.00;99962.84;4919589;29;20040;-88
2022/01/05 06:18:15;;;;;;;14.48;2.60;;;;;;;3.91;100.00;99940.56;4917015;29;20479;-89
2022/01/05 06:20:42;;;;;;;12.05;2.42;;;;;;;4.14;100.00;99987.53;4927848;29;20058;-89
2022/01/05 06:23:08;;;;;;;10.88;2.50;;;;;;;4.21;100.00;99988.22;4928329;29;20083;-89
2022/01/05 06:25:35;;;;;;;13.07;2.58;;;;;;;4.17;100.00;99990.00;4927028;29;20062;-88
2022/01/05 06:28:03;;;;;;;13.57;2.60;;;;;;;4.53;100.00;99973.63;4928832;29;20058;-88
2022/01/05 06:30:29;;;;;;;16.23;2.80;;;;;;;4.02;100.00;99994.69;4924867;29;20056;-88
2022/01/05 06:32:56;;;;;;;9.25;2.33;;;;;;;4.11;100.00;100003.13;4927537;29;20139;-89
2022/01/05 06:35:23;;;;;;;14.15;3.10;;;;;;;4.25;100.00;100010.59;4929331;29;20055;-88
2022/01/05 06:37:53;;;;;;;16.08;3.92;;;;;;;4.41;100.00;100007.63;4917896;29;20052;-88
2022/01/05 06:40:21;;;;;;;14.25;2.75;;;;;;;4.15;100.00;100014.28;4933632;29;20055;-88
2022/01/05 06:42:48;;;;;;;16.75;2.85;;;;;;;4.46;100.00;100022.19;4930154;29;20410;-88
2022/01/05 06:45:15;;;;;;;11.68;2.65;;;;;;;4.02;100.00;100016.28;4926329;29;20125;-88
2022/01/05 06:47:42;;;;;;;5.88;1.80;;;;;;;4.19;100.00;100029.69;4918791;29;20530;-88
2022/01/05 06:50:09;;;;;;;14.05;2.40;;;;;;;4.36;100.00;100054.41;4925981;29;20044;-88
2022/01/05 06:52:37;;;;;;;9.18;2.10;;;;;;;4.43;100.00;100068.91;4911896;29;20060;-87
2022/01/05 06:55:05;;;;;;;7.95;1.90;;;;;;;4.37;100.00;100082.88;4924876;29;20052;-88
2022/01/05 06:57:32;;;;;;;10.57;2.67;;;;;;;4.18;100.00;100090.19;4928085;29;20802;-88
2022/01/05 06:59:59;;;;;;;14.35;2.83;;;;;;;4.24;100.00;100096.13;4913780;29;20078;-88
2022/01/05 07:02:25;;;;;;;12.48;2.17;;;;;;;3.95;100.00;100108.81;4914461;29;20126;-87
2022/01/05 07:04:52;;;;;;;14.52;2.97;;;;;;;4.07;100.00;100125.84;4930332;29;20529;-88
2022/01/05 07:07:19;;;;;;;13.50;3.88;;;;;;;3.80;100.00;100122.91;4928960;29;20082;-88
2022/01/05 07:09:46;;;;;;;16.27;4.88;;;;;;;3.82;100.00;100101.31;4918242;29;20048;-88
2022/01/05 07:12:13;;;;;;;11.93;2.78;;;;;;;3.91;100.00;100116.66;4927134;29;20056;-87
2022/01/05 07:14:40;;;;;;;15.23;3.33;;;;;;;3.85;100.00;100112.47;4935886;29;20051;-87
2022/01/05 07:17:07;;;;;;;18.98;3.97;;;;;;;3.97;100.00;100112.22;4929704;29;20044;-86
2022/01/05 07:19:33;;;;;;;26.35;4.28;;;;;;;3.82;100.00;100122.88;4927417;29;20063;-87
2022/01/05 07:22:00;;;;;;;28.20;5.07;;;;;;;4.03;100.00;100111.25;4926162;29;20048;-86
2022/01/05 07:24:27;;;;;;;33.40;4.68;;;;;;;4.05;100.00;100088.75;4924591;29;20111;-86
2022/01/05 07:26:54;;;;;;;20.30;5.28;;;;;;;4.43;100.00;100127.69;4927065;29;20050;-87
2022/01/05 07:29:21;;;;;;;19.25;3.67;;;;;;;3.94;100.00;100114.03;4926648;29;20423;-87
2022/01/05 07:31:48;;;;;;;16.48;4.53;;;;;;;4.14;100.00;100117.06;4928672;29;20056;-88
2022/01/05 07:34:15;;;;;;;19.55;3.92;;;;;;;4.25;100.00;100147.94;4927591;29;20071;-87
2022/01/05 07:36:42;;;;;;;25.52;5.13;;;;;;;4.31;100.00;100171.13;4926088;29;20052;-87
2022/01/05 07:39:09;;;;;;;24.55;7.47;;;;;;;4.31;100.00;100175.47;4923940;29;20048;-87
2022/01/05 07:41:37;;;;;;;22.50;5.00;;;;;;;4.44;100.00;100182.06;4932593;29;20056;-88
2022/01/05 07:44:05;;;;;;;22.52;4.50;;;;;;;4.50;100.00;100188.91;4913957;29;20052;-88
2022/01/05 07:46:33;;;;;;;24.05;5.05;;;;;;;4.36;100.00;100184.84;4925159;29;20047;-87
2022/01/05 07:49:02;;;;;;;21.92;4.85;;;;;;;4.67;100.00;100193.69;4924024;29;20052;-87
2022/01/05 07:51:29;;;;;;;34.30;6.50;;;;;;;4.50;100.00;100205.28;4911250;29;20070;-88
2022/01/05 07:53:56;;;;;;;24.17;5.45;;;;;;;4.73;100.00;100193.56;4928517;29;20814;-88
2022/01/05 07:56:23;;;;;;;28.10;5.40;;;;;;;4.59;100.00;100206.00;4927066;29;20463;-88
2022/01/05 07:58:50;;;;;;;29.02;5.47;;;;;;;4.81;100.00;100222.78;4912687;29;20054;-87
2022/01/05 08:01:18;;;;;;;19.98;4.18;;;;;;;4.99;100.00;100228.44;4927192;29;20060;-88
2022/01/05 08:03:46;;;;;;;26.70;5.78;;;;;;;4.57;100.00;100231.94;4910138;29;20429;-87
2022/01/05 08:06:20;;;;;;;32.58;4.97;;;;;;;4.67;100.00;100237.78;4915751;29;20530;-87
2022/01/05 08:08:48;;;;;;;25.23;5.40;;;;;;;5.01;100.00;100252.59;4923512;29;20051;-88
2022/01/05 08:11:16;;;;;;;27.00;5.65;;;;;;;4.77;100.00;100260.06;4922806;29;20052;-89
2022/01/05 08:13:43;;;;;;;35.78;7.60;;;;;;;4.80;100.00;100259.13;4915147;29;20067;-88
2022/01/05 08:16:09;;;;;;;24.33;4.50;;;;;;;4.38;100.00;100268.59;4909358;29;20071;-88
2022/01/05 08:18:36;;;;;;;29.70;5.10;;;;;;;4.74;100.00;100297.25;4928857;29;20054;-88
2022/01/05 08:21:03;;;;;;;21.17;5.20;;;;;;;4.84;100.00;100291.91;4925420;29;20070;-87
2022/01/05 08:23:31;;;;;;;27.73;5.10;;;;;;;5.14;100.00;100303.38;4926349;29;20052;-88
2022/01/05 08:25:57;;;;;;;33.38;6.28;;;;;;;5.02;100.00;100290.66;4905900;29;20537;-88
2022/01/05 08:28:24;;;;;;;26.88;4.72;;;;;;;4.83;100.00;100306.59;4925477;29;20048;-88
2022/01/05 08:30:51;;;;;;;17.38;4.30;;;;;;;5.18;100.00;100312.78;4924784;29;20052;-88
2022/01/05 08:33:18;;;;;;;30.60;6.55;;;;;;;4.82;100.00;100297.13;4910517;29;20059;-88
2022/01/05 08:35:45;;;;;;;24.67;5.07;;;;;;;4.91;100.00;100311.63;4922632;29;20083;-88
2022/01/05 08:38:13;;;;;;;25.20;5.53;;;;;;;4.68;100.00;100299.16;4915329;29;20062;-88
2022/01/05 08:40:41;;;;;;;25.30;4.90;;;;;;;4.60;100.00;100306.22;4932343;29;20048;-88
2022/01/05 08:43:09;;;;;;;27.40;5.65;;;;;;;4.40;100.00;100319.56;4916564;29;20074;-88
2022/01/05 08:45:36;;;;;;;26.02;4.68;;;;;;;4.35;100.00;100330.03;4923124;29;20063;-87
2022/01/05 08:48:03;;;;;;;23.38;6.28;;;;;;;4.44;100.00;100318.63;4919595;29;20056;-88
2022/01/05 08:50:33;;;;;;;28.58;5.93;;;;;;;4.27;100.00;100339.69;4899664;29;20067;-88
2022/01/05 08:53:00;;;;;;;24.73;5.57;;;;;;;4.49;100.00;100347.91;4921724;29;20054;-90
2022/01/05 08:55:31;;;;;;;27.27;4.95;;;;;;;4.64;100.00;100352.81;4937245;29;20054;-90
2022/01/05 08:57:58;;;;;;;27.65;4.38;;;;;;;4.70;100.00;100363.06;4933140;29;20047;-90
2022/01/05 09:00:26;;;;;;;23.58;4.75;;;;;;;4.34;100.00;100352.50;4929616;29;20056;-91
2022/01/05 09:02:53;;;;;;;22.75;5.50;;;;;;;4.73;100.00;100372.53;4935964;29;20052;-90
2022/01/05 09:05:22;;;;;;;23.45;5.07;;;;;;;4.37;100.00;100370.59;4919138;29;20056;-91
2022/01/05 09:07:49;;;;;;;16.25;4.38;;;;;;;4.53;100.00;100386.72;4918904;29;20410;-90
2022/01/05 09:10:16;;;;;;;22.33;4.65;;;;;;;4.66;100.00;100386.50;4931358;29;20075;-90
2022/01/05 09:12:44;;;;;;;18.70;4.20;;;;;;;4.56;100.00;100391.84;4933870;29;20058;-89
2022/01/05 09:15:11;;;;;;;24.00;5.07;;;;;;;4.43;100.00;100392.13;4933762;29;20075;-90
2022/01/05 09:17:38;;;;;;;23.17;5.72;;;;;;;4.42;100.00;100398.16;4914840;29;20055;-89
2022/01/05 09:20:06;;;;;;;20.58;4.70;;;;;;;4.45;100.00;100400.72;4916316;29;20055;-89
2022/01/05 09:22:38;;;;;;;21.77;5.70;;;;;;;4.26;100.00;100403.59;4934088;29;20060;-90
2022/01/05 09:25:07;;;;;;;18.98;5.65;;;;;;;4.60;100.00;100412.53;4935365;29;20486;-87
2022/01/05 09:27:34;;;;;;;26.25;5.45;;;;;;;4.59;100.00;100427.25;4933717;29;20055;-89
2022/01/05 09:30:01;;;;;;;24.02;5.50;;;;;;;4.59;100.00;100429.00;4934341;29;20048;-90
2022/01/05 09:32:28;;;;;;;20.50;4.45;;;;;;;4.74;100.00;100445.09;4935186;29;20056;-89
2022/01/05 09:34:55;;;;;;;27.67;5.47;;;;;;;4.26;100.00;100431.25;4932972;29;20056;-87
2022/01/05 09:42:35;;;;;;;23.90;5.18;;;;;;;4.57;100.00;100462.72;4934444;29;20059;-86
2022/01/05 09:45:21;;;;;;;28.30;7.07;;;;;;;4.63;100.00;100466.94;4935007;29;20052;-86
2022/01/05 09:48:15;;;;;;;27.05;4.65;;;;;;;4.64;100.00;100479.00;4934951;29;20187;-86
2022/01/05 09:50:50;;;;;;;18.77;3.80;;;;;;;4.60;100.00;100488.56;4918081;29;20051;-86
2022/01/05 09:53:17;;;;;;;21.50;4.38;;;;;;;4.56;100.00;100489.53;4934021;29;20044;-86
2022/01/05 09:55:47;;;;;;;21.13;5.55;;;;;;;4.61;100.00;100476.50;4934345;29;20513;-86
2022/01/05 09:58:14;;;;;;;18.63;5.75;;;;;;;4.86;100.00;100498.50;4929915;29;20059;-86
2022/01/05 10:00:41;;;;;;;19.80;4.80;;;;;;;4.84;100.00;100504.63;4914281;29;20052;-87
2022/01/05 10:03:10;;;;;;;27.25;4.63;;;;;;;4.84;100.00;100491.66;4923467;29;20102;-86
2022/01/05 10:05:36;;;;;;;24.92;4.85;;;;;;;4.52;100.00;100493.91;4918256;29;20417;-86
2022/01/05 10:08:05;;;;;;;20.67;3.83;;;;;;;4.98;100.00;100496.59;4933244;29;20058;-86
2022/01/05 10:10:32;;;;;;;20.50;3.88;;;;;;;4.71;100.00;100472.84;4934521;29;20458;-86
2022/01/05 10:13:00;;;;;;;23.23;4.82;;;;;;;5.04;100.00;100509.44;4933782;29;20058;-86
2022/01/05 10:15:27;;;;;;;20.75;3.97;;;;;;;4.88;100.00;100530.47;4917290;29;20052;-85
2022/01/05 10:18:14;;;;;;;22.52;5.20;;;;;;;4.93;100.00;100535.59;4934045;29;20051;-85
2022/01/05 10:20:57;;;;;;;25.75;4.32;;;;;;;5.03;100.00;100546.63;4924452;29;20167;-87
2022/01/05 10:23:38;;;;;;;23.38;4.45;;;;;;;5.10;100.00;100540.50;4933071;29;20055;-88
2022/01/05 10:26:23;;;;;;;21.45;4.15;;;;;;;4.85;100.00;100553.88;4917151;29;20486;-86
2022/01/05 10:29:15;;;;;;;21.40;4.00;;;;;;;5.13;100.00;100545.59;4932220;29;20470;-87
2022/01/05 10:31:42;;;;;;;21.70;3.60;;;;;;;5.25;100.00;100547.97;4932829;29;20052;-87
2022/01/05 10:34:21;;;;;;;21.15;5.32;;;;;;;4.85;100.00;100553.88;4920990;29;20062;-87
2022/01/05 10:36:51;;;;;;;22.58;4.55;;;;;;;4.84;100.00;100549.56;4918899;29;20058;-87
2022/01/05 10:39:20;;;;;;;20.95;5.28;;;;;;;5.14;100.00;100563.75;4904891;29;20056;-87
2022/01/05 10:41:47;;;;;;;26.98;4.05;;;;;;;5.17;100.00;100561.97;4926452;29;20052;-87
2022/01/05 10:44:19;;;;;;;17.65;6.22;;;;;;;4.88;100.00;100556.41;4934682;29;20138;-87
2022/01/05 10:46:58;;;;;;;28.57;5.23;;;;;;;5.37;100.00;100572.00;4917534;29;20055;-87
2022/01/05 10:49:39;;;;;;;17.55;4.80;;;;;;;5.14;100.00;100581.06;4920303;29;20094;-88
2022/01/05 10:52:32;;;;;;;20.30;6.15;;;;;;;5.33;100.00;100590.22;4916894;29;20056;-87
2022/01/05 10:55:10;;;;;;;24.55;5.20;;;;;;;5.25;100.00;100591.25;4920447;29;20059;-87
2022/01/05 10:57:38;;;;;;;14.38;4.38;;;;;;;5.14;100.00;100583.66;4901365;29;20062;-87
2022/01/05 11:00:07;;;;;;;21.83;4.45;;;;;;;4.97;100.00;100589.13;4901579;29;20056;-87
2022/01/05 11:02:35;;;;;;;24.20;4.25;;;;;;;5.49;100.00;100603.78;4919506;29;20135;-87
2022/01/05 11:05:08;;;;;;;17.58;4.32;;;;;;;5.20;100.00;100569.72;4919386;29;20134;-87
2022/01/05 11:07:40;;;;;;;24.25;6.63;;;;;;;5.13;100.00;100624.34;4935699;29;20050;-89
2022/01/05 11:10:10;;;;;;;15.68;5.78;;;;;;;5.42;100.00;100620.38;4930097;29;20062;-88
2022/01/05 11:12:40;;;;;;;26.63;4.35;;;;;;;5.45;100.00;100612.53;4919951;29;20346;-89
2022/01/05 11:15:28;;;;;;;23.27;4.00;;;;;;;5.36;100.00;100630.84;4914390;29;20054;-87
2022/01/05 11:18:11;;;;;;;17.40;5.05;;;;;;;5.13;100.00;100639.03;4919763;29;20066;-86
2022/01/05 11:20:58;;;;;;;26.48;4.80;;;;;;;5.41;100.00;100655.00;4935447;29;20056;-86
2022/01/05 11:23:28;;;;;;;20.63;3.85;;;;;;;4.82;100.00;100672.41;4933876;29;20063;-87
2022/01/05 11:25:56;;;;;;;20.83;3.80;;;;;;;4.80;100.00;100675.03;4932813;29;20058;-86
2022/01/05 11:28:25;;;;;;;24.25;4.35;;;;;;;5.21;100.00;100701.22;4935063;29;20418;-86
2022/01/05 11:30:54;;;;;;;20.33;3.65;;;;;;;4.81;100.00;100714.78;4919922;29;20051;-86
2022/01/05 11:33:23;;;;;;;24.73;3.92;;;;;;;4.37;100.00;100696.34;4935065;29;20059;-85